Time;durP1;ratioP1;P1;durP2;ratioP2;P2;SDS_P1;SDS_P2;PMS_P1;PMS_P2;Temp;Humidity;BMP_temperature;BMP_pressure;BME280_temperature;BME280_humidity;BME280_pressure;Samples;Min_cycle;Max_cycle;Signal;HPM_P1;HPM_P2
2021/04/28 00:01:53;;;;;;;7.07;3.05;;;6.30;99.90;;;;;;5019161;28;20440;-76
2021/04/28 00:04:19;;;;;;;5.80;3.30;;;6.20;99.90;;;;;;5006548;28;20074;-77
2021/04/28 00:06:45;;;;;;;4.88;3.38;;;6.20;99.90;;;;;;5021291;28;20071;-77
2021/04/28 00:09:11;;;;;;;5.25;3.30;;;6.20;99.90;;;;;;5018545;28;20503;-76
2021/04/28 00:11:38;;;;;;;8.40;3.28;;;6.10;99.90;;;;;;5002503;28;20060;-76
2021/04/28 00:14:05;;;;;;;5.75;3.17;;;6.10;99.90;;;;;;5020893;28;20062;-75
2021/04/28 00:16:32;;;;;;;8.20;2.90;;;6.20;99.90;;;;;;5020489;28;20406;-76
2021/04/28 00:18:58;;;;;;;6.85;3.20;;;6.00;99.90;;;;;;5023203;28;21588;-77
2021/04/28 00:21:24;;;;;;;6.07;2.95;;;6.00;99.90;;;;;;5005802;28;20045;-76
2021/04/28 00:23:54;;;;;;;4.80;2.80;;;6.00;99.90;;;;;;5020609;28;20044;-76
2021/04/28 00:26:21;;;;;;;4.68;2.90;;;6.10;99.90;;;;;;5001383;28;20080;-76
2021/04/28 00:28:47;;;;;;;6.32;3.10;;;6.00;99.90;;;;;;5018213;28;20044;-76
2021/04/28 00:31:13;;;;;;;3.75;2.83;;;6.00;99.90;;;;;;5020487;28;20464;-77
2021/04/28 00:33:40;;;;;;;5.50;3.05;;;6.00;99.90;;;;;;5018827;28;20034;-75
2021/04/28 00:36:07;;;;;;;4.13;2.90;;;6.00;99.90;;;;;;5001161;28;20239;-76
2021/04/28 00:38:34;;;;;;;5.60;2.83;;;5.90;99.90;;;;;;5020918;28;20037;-77
2021/04/28 00:41:04;;;;;;;4.95;2.63;;;6.00;99.90;;;;;;5024024;28;20061;-77
2021/04/28 00:43:30;;;;;;;6.47;2.80;;;5.90;99.90;;;;;;5016891;28;20131;-76
2021/04/28 00:45:57;;;;;;;5.00;2.70;;;5.80;99.90;;;;;;5018286;28;20529;-76
2021/04/28 00:48:23;;;;;;;3.45;2.85;;;5.80;99.90;;;;;;5002710;28;20037;-76
2021/04/28 00:50:51;;;;;;;5.15;2.58;;;5.80;99.90;;;;;;5032884;28;20083;-76
2021/04/28 00:53:19;;;;;;;5.97;2.58;;;5.80;99.90;;;;;;5040185;28;20048;-77
2021/04/28 00:55:46;;;;;;;4.40;2.75;;;5.80;99.90;;;;;;5041908;28;20441;-77
2021/04/28 00:58:12;;;;;;;6.63;2.92;;;5.70;99.90;;;;;;5041962;28;20346;-77
2021/04/28 01:00:40;;;;;;;4.13;2.75;;;5.50;99.90;;;;;;5020466;28;20065;-76
2021/04/28 01:03:06;;;;;;;3.13;2.55;;;5.60;99.90;;;;;;5024233;28;20132;-77
2021/04/28 01:05:32;;;;;;;4.95;2.92;;;5.70;99.90;;;;;;5042324;28;20095;-76
2021/04/28 01:07:58;;;;;;;5.47;3.03;;;5.50;99.90;;;;;;5030278;28;20040;-77
2021/04/28 01:10:34;;;;;;;7.78;2.95;;;5.40;99.90;;;;;;5026180;28;20103;-75
2021/04/28 01:13:00;;;;;;;;;;;5.40;99.90;;;;;;5041003;28;20044;-76
2021/04/28 01:15:32;;;;;;;4.22;2.50;;;5.40;99.90;;;;;;5026587;28;19940;-75
2021/04/28 01:17:59;;;;;;;5.60;2.60;;;5.50;99.90;;;;;;5040256;28;20032;-76
2021/04/28 01:20:27;;;;;;;8.13;2.80;;;5.40;99.90;;;;;;5037678;28;20401;-77
2021/04/28 01:22:53;;;;;;;3.38;2.30;;;5.40;99.90;;;;;;5025724;28;20053;-76
2021/04/28 01:25:23;;;;;;;3.95;2.60;;;5.40;99.90;;;;;;5027226;28;20033;-76
2021/04/28 01:28:06;;;;;;;8.30;2.58;;;5.50;99.60;;;;;;5044828;28;20094;-76
2021/04/28 01:30:38;;;;;;;6.10;2.53;;;5.50;99.30;;;;;;5042425;28;20107;-76
2021/04/28 01:33:07;;;;;;;5.25;2.72;;;5.50;99.30;;;;;;5042372;28;20051;-76
2021/04/28 01:35:33;;;;;;;4.80;2.55;;;5.50;99.20;;;;;;5041597;28;20501;-77
2021/04/28 01:38:00;;;;;;;4.60;2.63;;;5.50;99.20;;;;;;5042992;28;20434;-76
2021/04/28 01:40:29;;;;;;;5.18;2.90;;;5.50;99.10;;;;;;5027370;28;20508;-76
2021/04/28 01:42:56;;;;;;;6.57;2.80;;;5.50;99.10;;;;;;5026859;28;20046;-77
2021/04/28 01:45:22;;;;;;;9.88;2.75;;;5.50;99.10;;;;;;5045055;28;20380;-76
2021/04/28 01:47:48;;;;;;;4.53;2.70;;;5.50;99.00;;;;;;5037502;28;20041;-75
2021/04/28 01:50:17;;;;;;;3.97;2.90;;;5.50;98.90;;;;;;5045271;28;20053;-77
2021/04/28 01:52:44;;;;;;;5.45;2.60;;;5.50;98.60;;;;;;5043936;28;20042;-77
2021/04/28 01:55:12;;;;;;;5.20;2.95;;;5.50;98.70;;;;;;5042795;28;20399;-76
2021/04/28 01:57:38;;;;;;;4.65;2.63;;;5.40;98.70;;;;;;5042769;28;20550;-76
2021/04/28 02:00:07;;;;;;;7.63;2.88;;;5.40;98.40;;;;;;5030238;28;20056;-77
2021/04/28 02:02:34;;;;;;;9.45;2.47;;;5.40;98.30;;;;;;5023370;28;20692;-76
2021/04/28 02:05:03;;;;;;;13.85;2.92;;;5.40;98.10;;;;;;5043146;28;20048;-76
2021/04/28 02:07:28;;;;;;;4.20;2.60;;;5.40;98.20;;;;;;5041636;28;20142;-76
2021/04/28 02:09:54;;;;;;;4.70;2.70;;;5.40;98.00;;;;;;5026159;28;20413;-76
2021/04/28 02:12:20;;;;;;;7.80;2.70;;;5.40;98.10;;;;;;5039372;28;20118;-76
2021/04/28 02:14:50;;;;;;;4.90;2.60;;;5.40;98.00;;;;;;5029975;28;20167;-76
2021/04/28 02:17:18;;;;;;;5.22;2.30;;;5.30;98.10;;;;;;5032051;28;20041;-76
2021/04/28 02:19:44;;;;;;;3.70;2.60;;;5.30;98.10;;;;;;5042499;28;20052;-76
2021/04/28 02:22:10;;;;;;;6.00;2.75;;;5.30;98.10;;;;;;5040537;28;20037;-77
2021/04/28 02:24:36;;;;;;;4.25;2.45;;;5.30;98.30;;;;;;5025860;28;20048;-77
2021/04/28 02:27:03;;;;;;;7.50;2.88;;;5.20;98.60;;;;;;5041536;28;20073;-76
2021/04/28 02:29:29;;;;;;;6.50;3.20;;;5.20;98.70;;;;;;5043068;28;20041;-76
2021/04/28 02:31:54;;;;;;;11.63;2.67;;;5.20;98.70;;;;;;5025815;28;20048;-76
2021/04/28 02:34:20;;;;;;;6.70;3.10;;;5.20;98.70;;;;;;5040671;28;20069;-77
2021/04/28 02:36:50;;;;;;;4.03;2.53;;;5.10;98.90;;;;;;5041772;28;20065;-77
2021/04/28 02:39:25;;;;;;;4.75;3.10;;;5.10;98.90;;;;;;5039953;28;20083;-77
2021/04/28 02:41:52;;;;;;;5.60;2.88;;;5.10;99.10;;;;;;5042016;28;20037;-76
2021/04/28 02:44:19;;;;;;;8.95;3.05;;;5.10;99.20;;;;;;5039745;28;20037;-77
2021/04/28 02:46:47;;;;;;;5.10;2.78;;;5.10;99.30;;;;;;5038816;28;21513;-77
2021/04/28 02:49:13;;;;;;;6.10;2.65;;;5.10;99.50;;;;;;5043341;28;20057;-77
2021/04/28 02:51:40;;;;;;;7.53;2.63;;;5.00;99.60;;;;;;5038696;28;20049;-77
2021/04/28 02:54:07;;;;;;;3.15;2.70;;;5.10;99.60;;;;;;5040309;28;20040;-75
2021/04/28 02:56:34;;;;;;;6.32;2.72;;;5.10;99.60;;;;;;5043949;28;20046;-75
2021/04/28 02:59:01;;;;;;;6.63;2.80;;;5.10;99.80;;;;;;5041377;28;20049;-75
2021/04/28 03:01:27;;;;;;;9.40;3.10;;;5.10;99.90;;;;;;5044332;28;20900;-75
2021/04/28 03:03:55;;;;;;;5.68;3.50;;;5.10;99.80;;;;;;5042688;28;20025;-75
2021/04/28 03:06:21;;;;;;;5.82;2.80;;;5.10;99.80;;;;;;5028760;28;20049;-75
2021/04/28 03:08:47;;;;;;;6.85;2.83;;;5.10;99.90;;;;;;5029559;28;20037;-75
2021/04/28 03:11:16;;;;;;;4.35;2.72;;;5.00;99.90;;;;;;5027049;28;20029;-76
2021/04/28 03:13:43;;;;;;;6.28;3.10;;;5.10;99.90;;;;;;5044447;28;20060;-76
2021/04/28 03:16:10;;;;;;;5.40;2.95;;;5.10;99.90;;;;;;5024353;28;20045;-75
2021/04/28 03:18:37;;;;;;;4.28;2.97;;;5.00;99.90;;;;;;5026056;28;20029;-75
2021/04/28 03:21:06;;;;;;;5.55;3.03;;;5.00;99.90;;;;;;5041984;28;20056;-75
2021/04/28 03:23:32;;;;;;;8.73;3.58;;;4.90;99.90;;;;;;5040345;28;20041;-75
2021/04/28 03:25:59;;;;;;;6.20;2.90;;;4.90;99.90;;;;;;5028949;28;20057;-75
2021/04/28 03:28:26;;;;;;;5.55;2.72;;;4.80;99.90;;;;;;5037717;28;20041;-75
2021/04/28 03:30:52;;;;;;;5.10;3.10;;;4.80;99.90;;;;;;5023591;28;20044;-75
2021/04/28 03:33:18;;;;;;;5.57;3.22;;;4.80;99.90;;;;;;5039031;28;20380;-75
2021/04/28 03:35:43;;;;;;;7.85;3.20;;;4.80;99.90;;;;;;5043448;28;20490;-76
2021/04/28 03:38:10;;;;;;;6.22;3.40;;;4.80;99.90;;;;;;5041623;28;20040;-75
2021/04/28 03:40:36;;;;;;;4.35;3.00;;;4.80;99.90;;;;;;5042670;28;20834;-76
2021/04/28 03:43:02;;;;;;;8.93;3.10;;;4.80;99.90;;;;;;5024540;28;20091;-75
2021/04/28 03:45:27;;;;;;;5.90;3.05;;;4.80;99.90;;;;;;5023306;28;20512;-74
2021/04/28 03:47:53;;;;;;;4.63;3.25;;;4.80;99.90;;;;;;5026733;28;20540;-75
2021/04/28 03:50:19;;;;;;;5.53;3.15;;;4.90;99.90;;;;;;5042856;28;20055;-75
2021/04/28 03:52:44;;;;;;;9.85;3.40;;;4.80;99.90;;;;;;5020518;28;20041;-75
2021/04/28 03:55:11;;;;;;;6.18;2.83;;;4.90;99.90;;;;;;5042361;28;20032;-75
2021/04/28 03:57:37;;;;;;;7.45;3.42;;;4.90;99.90;;;;;;5045004;28;20037;-75
2021/04/28 04:00:09;;;;;;;4.13;3.20;;;4.90;99.90;;;;;;5029723;28;20751;-75
2021/04/28 04:02:35;;;;;;;6.78;3.20;;;4.80;99.90;;;;;;5025721;28;20456;-74
2021/04/28 04:05:00;;;;;;;4.15;2.65;;;4.80;99.90;;;;;;5041062;28;20437;-75
2021/04/28 04:07:27;;;;;;;5.35;3.33;;;4.80;99.90;;;;;;5023716;28;20045;-76
2021/04/28 04:09:52;;;;;;;4.88;2.80;;;4.90;99.90;;;;;;5044899;28;20041;-75
2021/04/28 04:12:19;;;;;;;8.77;3.08;;;5.10;99.90;;;;;;5043585;28;20071;-76
2021/04/28 04:14:44;;;;;;;4.30;2.65;;;5.00;99.90;;;;;;5005536;28;20147;-76
2021/04/28 04:17:10;;;;;;;5.90;2.70;;;5.10;99.90;;;;;;5039347;28;20553;-75
2021/04/28 04:19:36;;;;;;;6.10;2.97;;;5.10;99.90;;;;;;5039328;28;20041;-75
2021/04/28 04:22:02;;;;;;;6.38;3.03;;;5.20;99.70;;;;;;5041351;28;20056;-76
2021/04/28 04:24:28;;;;;;;7.28;3.40;;;5.20;99.70;;;;;;5019691;28;20356;-75
2021/04/28 04:26:54;;;;;;;6.53;3.10;;;5.20;99.70;;;;;;5035465;28;20041;-75
2021/04/28 04:29:20;;;;;;;6.70;3.33;;;5.20;99.90;;;;;;5041144;28;20068;-76
2021/04/28 04:31:46;;;;;;;5.47;3.35;;;5.10;99.90;;;;;;5041876;28;20088;-75
2021/04/28 04:34:12;;;;;;;8.45;3.40;;;5.20;99.90;;;;;;5039062;28;20030;-76
2021/04/28 04:36:38;;;;;;;5.68;3.40;;;5.20;99.90;;;;;;5037686;28;20051;-75
2021/04/28 04:39:05;;;;;;;4.47;2.92;;;5.20;99.90;;;;;;5038965;28;21557;-76
2021/04/28 04:41:32;;;;;;;9.27;3.30;;;5.30;99.90;;;;;;5038367;28;20122;-75
2021/04/28 04:43:58;;;;;;;4.20;2.65;;;5.30;99.80;;;;;;5032872;28;20041;-73
2021/04/28 04:46:24;;;;;;;4.80;3.40;;;5.80;99.90;;;;;;5041353;28;20483;-74
2021/04/28 04:48:50;;;;;;;7.75;3.00;;;5.80;99.90;;;;;;5025293;28;20046;-76
2021/04/28 04:51:16;;;;;;;8.95;3.60;;;5.60;99.40;;;;;;5044794;28;20098;-75
2021/04/28 04:53:42;;;;;;;5.25;3.50;;;5.60;99.10;;;;;;5024782;28;20041;-75
2021/04/28 04:56:08;;;;;;;5.63;2.92;;;5.60;98.90;;;;;;5026696;28;20400;-75
2021/04/28 04:58:33;;;;;;;6.57;3.00;;;5.50;98.80;;;;;;5020686;28;20044;-76
2021/04/28 05:00:59;;;;;;;11.23;3.17;;;5.60;99.00;;;;;;5023167;28;20552;-75
2021/04/28 05:03:25;;;;;;;5.80;3.13;;;5.60;98.70;;;;;;5023269;28;20462;-76
2021/04/28 05:05:51;;;;;;;5.40;2.70;;;5.60;98.70;;;;;;5034520;28;20048;-75
2021/04/28 05:08:17;;;;;;;7.65;3.17;;;5.60;98.40;;;;;;5042123;28;20045;-75
2021/04/28 05:10:43;;;;;;;9.23;3.10;;;5.70;98.30;;;;;;5045969;28;20043;-75
2021/04/28 05:13:10;;;;;;;6.82;2.92;;;5.70;98.40;;;;;;5038922;28;20033;-74
2021/04/28 05:15:36;;;;;;;6.15;3.00;;;5.70;98.30;;;;;;5018817;28;20043;-76
2021/04/28 05:18:02;;;;;;;5.85;3.00;;;5.80;98.50;;;;;;5036289;28;20041;-76
2021/04/28 05:20:28;;;;;;;6.75;3.15;;;5.80;98.60;;;;;;5039975;28;20041;-75
2021/04/28 05:22:54;;;;;;;6.05;3.03;;;5.90;98.30;;;;;;5020419;28;20029;-75
2021/04/28 05:25:20;;;;;;;3.35;2.40;;;5.90;98.20;;;;;;5038615;28;20037;-75
2021/04/28 05:27:46;;;;;;;5.95;3.10;;;6.00;98.20;;;;;;5036933;28;20056;-75
2021/04/28 05:30:13;;;;;;;6.60;3.17;;;6.00;97.90;;;;;;5038795;28;20049;-74
2021/04/28 05:32:40;;;;;;;5.05;3.35;;;6.10;97.80;;;;;;5035401;28;20116;-74
2021/04/28 05:35:08;;;;;;;9.77;3.20;;;6.20;97.70;;;;;;5022521;28;20051;-74
2021/04/28 05:37:34;;;;;;;7.15;3.22;;;6.30;97.30;;;;;;5034273;28;20497;-74
2021/04/28 05:40:00;;;;;;;6.43;3.35;;;6.30;97.40;;;;;;5039658;28;20037;-75
2021/04/28 05:42:26;;;;;;;16.92;3.58;;;6.30;97.40;;;;;;5033902;28;20122;-74
2021/04/28 05:44:52;;;;;;;15.07;3.22;;;6.40;97.40;;;;;;5041998;28;20052;-74
2021/04/28 05:47:19;;;;;;;7.97;3.33;;;6.40;97.40;;;;;;5041968;28;20052;-74
2021/04/28 05:49:44;;;;;;;11.65;3.13;;;6.30;96.70;;;;;;5036747;28;20042;-75
2021/04/28 05:52:10;;;;;;;4.80;3.10;;;6.50;96.50;;;;;;5027885;28;20040;-77
2021/04/28 05:54:36;;;;;;;9.30;3.35;;;6.50;96.70;;;;;;5035758;28;20037;-75
2021/04/28 05:57:02;;;;;;;9.43;3.17;;;6.50;96.80;;;;;;5019958;28;20409;-76
2021/04/28 05:59:28;;;;;;;5.82;3.33;;;6.50;97.00;;;;;;5035503;28;20040;-75
2021/04/28 06:01:54;;;;;;;5.78;2.95;;;6.60;96.00;;;;;;5019799;28;20030;-76
2021/04/28 06:04:20;;;;;;;7.18;3.35;;;6.60;95.20;;;;;;5033344;28;20048;-76
2021/04/28 06:06:46;;;;;;;6.05;3.22;;;6.60;95.00;;;;;;5028895;28;20072;-75
2021/04/28 06:09:12;;;;;;;7.20;2.90;;;6.80;95.70;;;;;;5039156;28;20061;-76
2021/04/28 06:11:38;;;;;;;6.70;3.40;;;6.70;94.50;;;;;;5036185;28;20102;-74
2021/04/28 06:14:04;;;;;;;5.05;2.90;;;6.80;95.30;;;;;;5022280;28;20473;-75
2021/04/28 06:16:30;;;;;;;6.10;3.50;;;6.90;95.20;;;;;;5043535;28;20041;-76
2021/04/28 06:18:56;;;;;;;6.75;3.58;;;6.90;95.40;;;;;;5031745;28;20039;-75
2021/04/28 06:21:21;;;;;;;9.25;3.60;;;7.00;95.30;;;;;;5038803;28;20037;-76
2021/04/28 06:23:47;;;;;;;4.90;3.00;;;7.00;95.10;;;;;;5029313;28;20040;-75
2021/04/28 06:26:13;;;;;;;8.52;3.63;;;7.10;95.60;;;;;;5021938;28;20067;-76
2021/04/28 06:28:39;;;;;;;7.57;3.50;;;7.30;97.40;;;;;;5023419;28;20068;-76
2021/04/28 06:31:05;;;;;;;7.90;3.30;;;7.20;94.40;;;;;;5038299;28;20037;-75
2021/04/28 06:33:31;;;;;;;10.73;3.22;;;7.30;94.50;;;;;;5037039;28;20052;-76
2021/04/28 06:35:57;;;;;;;5.88;3.25;;;7.40;94.30;;;;;;5024753;28;20088;-75
2021/04/28 06:38:23;;;;;;;4.00;3.30;;;7.40;94.10;;;;;;5043145;28;20053;-75
2021/04/28 06:40:49;;;;;;;6.03;3.25;;;7.50;94.00;;;;;;5038701;28;21041;-75
2021/04/28 06:43:15;;;;;;;10.70;4.07;;;7.40;94.30;;;;;;5038739;28;20055;-75
2021/04/28 06:45:43;;;;;;;5.68;3.38;;;7.50;94.30;;;;;;5034863;28;20049;-75
2021/04/28 06:48:09;;;;;;;6.75;3.70;;;7.50;94.10;;;;;;5040309;28;20087;-75
2021/04/28 06:50:35;;;;;;;10.80;3.50;;;7.60;94.40;;;;;;5039068;28;20060;-75
2021/04/28 06:53:01;;;;;;;9.80;4.00;;;7.70;94.20;;;;;;5027962;28;20069;-76
2021/04/28 06:55:27;;;;;;;13.65;3.88;;;7.70;94.10;;;;;;5044455;28;20069;-75
2021/04/28 06:57:56;;;;;;;7.40;3.90;;;7.80;94.40;;;;;;5041259;28;20036;-75
2021/04/28 07:00:24;;;;;;;17.17;4.20;;;7.80;94.40;;;;;;5041853;28;20046;-76
2021/04/28 07:02:51;;;;;;;13.48;3.63;;;7.90;94.30;;;;;;5046197;28;20038;-74
2021/04/28 07:05:17;;;;;;;6.35;3.75;;;7.90;93.80;;;;;;5034180;28;20049;-76
2021/04/28 07:07:42;;;;;;;7.03;3.63;;;8.00;93.20;;;;;;5050272;28;20479;-76
2021/04/28 07:10:09;;;;;;;10.27;4.03;;;8.10;93.10;;;;;;5023991;28;20086;-75
2021/04/28 07:12:35;;;;;;;6.43;3.65;;;8.10;93.40;;;;;;5026453;28;20048;-76
2021/04/28 07:15:01;;;;;;;14.63;4.60;;;8.20;93.20;;;;;;5047045;28;20037;-75
2021/04/28 07:17:26;;;;;;;5.78;3.58;;;8.40;92.70;;;;;;5038977;28;20060;-75
2021/04/28 07:19:53;;;;;;;11.80;4.22;;;8.40;89.20;;;;;;5043023;28;20086;-74
2021/04/28 07:22:19;;;;;;;7.72;4.10;;;8.50;89.60;;;;;;5048215;28;20037;-74
2021/04/28 07:24:45;;;;;;;8.75;4.00;;;8.60;87.20;;;;;;5041025;28;20064;-73
2021/04/28 07:27:10;;;;;;;11.15;4.00;;;8.60;85.00;;;;;;5022293;28;20559;-73
2021/04/28 07:29:36;;;;;;;7.07;4.30;;;8.80;84.90;;;;;;5041859;28;20037;-73
2021/04/28 07:32:03;;;;;;;7.30;4.00;;;8.90;85.30;;;;;;5024459;28;20116;-73
2021/04/28 07:34:29;;;;;;;11.90;4.07;;;9.00;87.10;;;;;;5038857;28;20040;-74
2021/04/28 07:36:55;;;;;;;8.27;4.20;;;9.10;86.30;;;;;;5038644;28;20055;-74
2021/04/28 07:39:21;;;;;;;9.05;4.70;;;9.10;83.30;;;;;;5027442;28;20067;-75
2021/04/28 07:41:48;;;;;;;9.40;4.35;;;9.20;81.60;;;;;;5035710;28;20053;-75
2021/04/28 07:44:15;;;;;;;7.18;3.63;;;9.20;81.00;;;;;;5041201;28;20068;-74
2021/04/28 07:46:41;;;;;;;9.10;4.10;;;9.30;75.50;;;;;;5033558;28;20037;-74
2021/04/28 07:49:07;;;;;;;7.55;4.10;;;9.40;77.40;;;;;;5032966;28;20044;-75
2021/04/28 07:51:35;;;;;;;7.35;3.72;;;9.40;80.00;;;;;;5047297;28;20125;-74
2021/04/28 07:54:01;;;;;;;15.20;4.40;;;9.50;78.30;;;;;;5030389;28;20040;-75
2021/04/28 07:56:27;;;;;;;12.73;4.30;;;9.60;78.40;;;;;;5034628;28;20053;-76
2021/04/28 07:58:53;;;;;;;13.73;4.60;;;9.60;79.30;;;;;;5049826;28;20043;-75
2021/04/28 08:01:20;;;;;;;12.43;4.30;;;9.80;79.80;;;;;;5027484;28;20059;-75
2021/04/28 08:03:46;;;;;;;12.20;4.15;;;9.80;81.30;;;;;;5037563;28;20128;-75
2021/04/28 08:06:12;;;;;;;9.80;4.80;;;9.90;78.30;;;;;;5033325;28;20162;-76
2021/04/28 08:08:37;;;;;;;9.95;4.50;;;10.00;78.50;;;;;;5024693;28;20044;-75
2021/04/28 08:11:04;;;;;;;8.15;3.88;;;10.00;80.10;;;;;;5051691;28;20093;-81
2021/04/28 08:13:30;;;;;;;9.73;4.38;;;10.10;78.80;;;;;;5037600;28;20049;-76
2021/04/28 08:15:56;;;;;;;8.32;4.32;;;10.20;80.70;;;;;;5016893;28;20049;-76
2021/04/28 08:18:22;;;;;;;17.67;5.05;;;10.30;79.50;;;;;;5041526;28;20041;-76
2021/04/28 08:20:48;;;;;;;9.05;4.75;;;10.50;78.10;;;;;;5023773;28;20128;-75
2021/04/28 08:23:14;;;;;;;10.63;4.63;;;10.50;73.30;;;;;;5040816;28;20053;-75
2021/04/28 08:25:41;;;;;;;7.18;5.05;;;10.60;74.90;;;;;;5043815;28;20049;-75
2021/04/28 08:28:07;;;;;;;13.15;4.63;;;10.70;77.10;;;;;;5052679;28;20518;-76
2021/04/28 08:30:33;;;;;;;9.00;5.10;;;10.80;74.90;;;;;;5052431;28;20041;-75
2021/04/28 08:32:59;;;;;;;11.25;4.65;;;10.90;79.30;;;;;;5034390;28;20578;-75
2021/04/28 08:35:25;;;;;;;11.80;4.88;;;11.00;75.10;;;;;;5038215;28;20049;-76
2021/04/28 08:37:53;;;;;;;9.07;5.07;;;11.10;73.00;;;;;;5033405;28;20146;-76
2021/04/28 08:40:20;;;;;;;7.75;4.80;;;11.10;69.70;;;;;;5029971;28;20046;-76
2021/04/28 08:42:46;;;;;;;11.32;4.90;;;11.30;69.90;;;;;;5014750;28;20049;-76
2021/04/28 08:45:13;;;;;;;10.80;5.28;;;11.20;68.50;;;;;;5036729;28;20541;-76
2021/04/28 08:47:40;;;;;;;10.57;5.10;;;11.30;70.30;;;;;;5034532;28;20053;-76
2021/04/28 08:50:07;;;;;;;11.10;4.95;;;11.40;67.20;;;;;;5044415;28;20041;-76
2021/04/28 08:52:34;;;;;;;9.80;5.30;;;11.50;66.40;;;;;;5029955;28;20512;-76
2021/04/28 08:55:00;;;;;;;8.00;5.07;;;11.80;66.80;;;;;;5010146;28;20079;-76
2021/04/28 08:57:26;;;;;;;9.73;5.25;;;11.80;64.70;;;;;;5025064;28;20128;-76
2021/04/28 08:59:53;;;;;;;8.57;5.13;;;11.80;65.80;;;;;;4994841;28;20088;-76
2021/04/28 09:02:28;;;;;;;9.20;5.95;;;11.90;69.40;;;;;;5012561;28;20034;-76
2021/04/28 09:05:02;;;;;;;8.30;4.72;;;12.00;67.10;;;;;;5012689;28;20072;-76
2021/04/28 09:07:30;;;;;;;9.52;4.90;;;12.00;65.10;;;;;;5024248;28;20350;-76
2021/04/28 09:10:04;;;;;;;12.00;5.93;;;12.10;66.20;;;;;;5005610;28;20478;-75
2021/04/28 09:12:30;;;;;;;12.90;5.38;;;12.10;68.20;;;;;;4995309;28;20080;-76
2021/04/28 09:14:56;;;;;;;7.75;5.13;;;12.30;64.90;;;;;;5015909;28;20034;-76
2021/04/28 09:17:21;;;;;;;9.52;5.25;;;12.30;62.50;;;;;;5007907;28;20327;-76
2021/04/28 09:19:54;;;;;;;6.93;5.43;;;12.40;62.60;;;;;;5017986;28;20358;-76
2021/04/28 09:22:22;;;;;;;6.90;5.03;;;12.30;59.70;;;;;;5014631;28;20183;-76
2021/04/28 09:24:50;;;;;;;8.23;5.30;;;12.60;61.00;;;;;;5013101;28;20076;-75
2021/04/28 09:27:40;;;;;;;10.45;5.50;;;12.50;59.20;;;;;;5011358;28;20045;-75
2021/04/28 09:30:21;;;;;;;14.35;5.47;;;12.60;59.70;;;;;;5020458;28;20045;-75
2021/04/28 09:32:48;;;;;;;8.10;5.10;;;12.70;60.50;;;;;;5013275;28;20069;-75
2021/04/28 09:35:17;;;;;;;7.35;5.40;;;12.90;56.40;;;;;;5008788;28;20045;-75
2021/04/28 09:38:12;;;;;;;9.07;5.20;;;13.00;55.60;;;;;;5018581;28;20029;-76
2021/04/28 09:40:50;;;;;;;10.48;4.95;;;13.20;53.80;;;;;;4988047;28;20378;-76
2021/04/28 09:43:16;;;;;;;9.00;5.38;;;13.10;53.50;;;;;;4982906;28;20073;-76
2021/04/28 09:45:42;;;;;;;12.90;5.43;;;13.20;55.60;;;;;;4988694;28;20142;-76
2021/04/28 09:48:26;;;;;;;9.57;5.68;;;13.20;54.40;;;;;;4993835;28;20034;-76
2021/04/28 09:51:08;;;;;;;11.15;5.80;;;13.50;53.40;;;;;;5005344;28;20446;-76
2021/04/28 09:53:34;;;;;;;10.00;4.88;;;13.40;54.20;;;;;;5011428;28;20058;-76
2021/04/28 09:56:00;;;;;;;13.30;4.95;;;13.60;54.40;;;;;;5011232;28;20050;-77
2021/04/28 09:58:48;;;;;;;13.38;5.50;;;13.40;54.90;;;;;;5007771;28;20057;-75
2021/04/28 10:01:39;;;;;;;10.63;5.97;;;13.60;54.60;;;;;;4979272;28;20046;-76
2021/04/28 10:04:07;;;;;;;11.77;5.82;;;13.60;55.00;;;;;;5010565;28;20417;-76
2021/04/28 10:06:40;;;;;;;7.72;5.82;;;13.60;52.60;;;;;;5000281;28;20137;-76
2021/04/28 10:09:24;;;;;;;9.48;5.05;;;13.70;54.20;;;;;;5012597;28;20033;-76
2021/04/28 10:11:50;;;;;;;6.13;5.22;;;14.00;54.50;;;;;;4994201;28;20048;-76
2021/04/28 10:14:16;;;;;;;7.22;5.22;;;14.10;52.50;;;;;;5009091;28;20045;-76
2021/04/28 10:16:43;;;;;;;11.05;6.00;;;14.10;50.00;;;;;;5026734;28;20053;-76
2021/04/28 10:19:09;;;;;;;8.85;5.57;;;14.10;50.00;;;;;;5055308;28;20037;-76
2021/04/28 10:21:37;;;;;;;18.70;5.60;;;14.30;49.80;;;;;;5054427;28;20135;-76
2021/04/28 10:24:03;;;;;;;10.18;5.60;;;14.50;50.80;;;;;;5027224;28;20041;-76
2021/04/28 10:26:31;;;;;;;6.57;4.57;;;14.40;47.60;;;;;;5055680;28;20414;-76
2021/04/28 10:28:59;;;;;;;7.30;4.90;;;14.40;46.40;;;;;;5051099;28;20542;-76
2021/04/28 10:31:25;;;;;;;10.50;5.10;;;14.70;46.10;;;;;;5036246;28;20041;-76
2021/04/28 10:33:54;;;;;;;6.95;4.93;;;14.90;47.50;;;;;;5041511;28;20033;-77
2021/04/28 10:36:21;;;;;;;7.47;4.20;;;14.70;46.10;;;;;;5049527;28;20127;-76
2021/04/28 10:38:47;;;;;;;9.32;5.70;;;14.60;43.60;;;;;;5054223;28;20056;-76
2021/04/28 10:41:36;;;;;;;7.35;4.88;;;14.90;46.20;;;;;;5050633;28;20041;-76
2021/04/28 10:44:02;;;;;;;9.50;4.70;;;15.00;45.90;;;;;;5046551;28;20037;-76
2021/04/28 10:46:28;;;;;;;7.20;4.68;;;14.90;43.30;;;;;;5038071;28;20030;-76
2021/04/28 10:48:53;;;;;;;5.97;5.00;;;15.00;43.40;;;;;;5032657;28;20055;-76
2021/04/28 10:51:37;;;;;;;10.63;5.25;;;15.30;44.80;;;;;;5018444;28;20060;-78
2021/04/28 10:54:28;;;;;;;7.35;5.15;;;15.50;44.50;;;;;;5040930;28;20103;-75
2021/04/28 10:57:03;;;;;;;7.15;4.97;;;15.70;43.60;;;;;;5028205;28;20042;-76
2021/04/28 10:59:41;;;;;;;;;;;15.90;43.50;;;;;;5041020;28;20037;-76
2021/04/28 11:02:09;;;;;;;12.30;5.55;;;15.60;44.40;;;;;;5030254;28;19977;-77
2021/04/28 11:04:35;;;;;;;7.70;4.88;;;16.10;45.70;;;;;;5047318;28;20489;-77
2021/04/28 11:07:02;;;;;;;11.48;5.65;;;16.10;42.80;;;;;;5044150;28;20029;-77
2021/04/28 11:09:27;;;;;;;8.60;5.18;;;16.40;42.60;;;;;;5038602;28;20059;-76
2021/04/28 11:11:55;;;;;;;7.85;4.85;;;16.40;43.30;;;;;;5045466;28;20045;-77
2021/04/28 11:14:23;;;;;;;8.95;5.32;;;16.60;41.70;;;;;;5043302;28;20037;-77
2021/04/28 11:17:01;;;;;;;12.68;6.20;;;17.00;43.80;;;;;;5043726;28;20055;-77
2021/04/28 11:19:34;;;;;;;9.98;5.65;;;16.90;44.40;;;;;;5041171;28;20480;-77
2021/04/28 11:22:21;;;;;;;9.50;5.47;;;16.90;41.90;;;;;;5043026;28;20072;-77
2021/04/28 11:25:12;;;;;;;7.13;5.03;;;16.50;41.00;;;;;;5050256;28;20086;-76
2021/04/28 11:27:43;;;;;;;6.97;5.50;;;16.50;42.40;;;;;;5038624;28;20052;-77
2021/04/28 11:30:30;;;;;;;11.52;5.60;;;17.00;42.90;;;;;;5037505;28;20077;-75
2021/04/28 11:33:34;;;;;;;11.35;5.40;;;17.50;41.40;;;;;;5046973;28;20037;-77
2021/04/28 11:36:00;;;;;;;9.45;5.68;;;17.90;42.20;;;;;;5041513;28;20059;-77
2021/04/28 11:38:29;;;;;;;11.52;5.40;;;18.00;39.60;;;;;;5039252;28;20044;-77
2021/04/28 11:41:03;;;;;;;9.23;5.60;;;17.90;40.20;;;;;;5044239;28;20044;-76
2021/04/28 11:43:32;;;;;;;8.68;5.47;;;17.60;41.30;;;;;;5036562;28;20095;-75
2021/04/28 11:46:04;;;;;;;11.13;5.75;;;18.10;40.30;;;;;;5034608;28;20029;-74
2021/04/28 11:48:31;;;;;;;8.95;5.43;;;18.10;40.60;;;;;;5048835;28;20041;-74
2021/04/28 11:51:01;;;;;;;8.43;5.63;;;18.10;40.30;;;;;;5035742;28;20148;-76
2021/04/28 11:53:29;;;;;;;6.65;5.20;;;18.10;39.80;;;;;;5016738;28;20766;-75
2021/04/28 11:55:55;;;;;;;5.80;5.20;;;18.10;39.70;;;;;;5017664;28;20095;-76
2021/04/28 11:58:28;;;;;;;6.43;5.35;;;18.10;40.90;;;;;;5039872;28;20041;-76
2021/04/28 12:01:04;;;;;;;9.15;5.93;;;17.90;39.90;;;;;;5033322;28;20473;-76
2021/04/28 12:03:52;;;;;;;13.05;6.00;;;17.30;39.60;;;;;;5033378;28;20045;-76
2021/04/28 12:06:44;;;;;;;11.00;5.47;;;17.40;41.40;;;;;;5052095;28;20381;-76
2021/04/28 12:09:30;;;;;;;9.10;5.30;;;17.90;40.60;;;;;;5032616;28;20029;-76
2021/04/28 12:12:25;;;;;;;12.45;5.80;;;17.50;40.00;;;;;;5033700;28;20449;-76
2021/04/28 12:15:06;;;;;;;10.30;5.90;;;17.10;40.00;;;;;;5032205;28;20045;-76
2021/04/28 12:17:37;;;;;;;10.15;5.53;;;17.10;41.70;;;;;;5043443;28;20171;-74
2021/04/28 12:20:12;;;;;;;11.00;5.95;;;17.60;42.20;;;;;;5043031;28;20065;-75
2021/04/28 12:22:38;;;;;;;9.43;5.90;;;17.70;41.00;;;;;;5034571;28;20056;-75
2021/04/28 12:25:06;;;;;;;7.70;6.13;;;17.50;40.30;;;;;;5050569;28;20056;-76
2021/04/28 12:27:34;;;;;;;6.15;5.13;;;17.40;40.50;;;;;;5049050;28;20041;-76
2021/04/28 12:30:11;;;;;;;6.60;5.30;;;17.70;39.90;;;;;;5024301;28;20045;-75
2021/04/28 12:32:43;;;;;;;10.25;6.10;;;17.40;37.80;;;;;;5019520;28;20061;-75
2021/04/28 12:35:16;;;;;;;12.82;5.75;;;17.40;40.70;;;;;;5044302;28;20139;-75
2021/04/28 12:38:06;;;;;;;5.97;5.38;;;17.60;41.10;;;;;;5035972;28;20047;-75
2021/04/28 12:40:46;;;;;;;9.13;5.97;;;17.80;40.70;;;;;;5040415;28;20067;-75
2021/04/28 12:43:20;;;;;;;9.23;5.78;;;18.30;39.00;;;;;;5041266;28;20558;-75
2021/04/28 12:45:47;;;;;;;8.82;6.13;;;18.80;38.20;;;;;;5046427;28;20045;-76
2021/04/28 12:48:16;;;;;;;10.10;5.55;;;18.80;37.80;;;;;;5033498;28;20041;-75
2021/04/28 12:50:50;;;;;;;10.85;5.63;;;19.30;37.90;;;;;;5038149;28;20059;-76
2021/04/28 12:53:19;;;;;;;9.15;5.80;;;19.40;38.10;;;;;;5050794;28;20497;-75
2021/04/28 12:55:56;;;;;;;7.95;5.88;;;19.30;37.80;;;;;;5041802;28;20053;-75
2021/04/28 12:58:23;;;;;;;10.13;5.50;;;19.00;36.80;;;;;;5031238;28;20103;-75